Time;durP1;ratioP1;P1;durP2;ratioP2;P2;SDS_P1;SDS_P2;PMS_P1;PMS_P2;Temp;Humidity;BMP_temperature;BMP_pressure;BME280_temperature;BME280_humidity;BME280_pressure;Samples;Min_cycle;Max_cycle;Signal;HPM_P1;HPM_P2
2022/10/06 03:58:18;;;;;;;25.40;23.17;;;12.50;99.90;;;;;;5386372;23;20505;-73
2022/10/06 04:00:45;;;;;;;24.70;22.47;;;12.50;99.90;;;;;;4989000;28;20784;-74
2022/10/06 04:03:12;;;;;;;25.10;23.00;;;12.50;99.90;;;;;;4989080;28;20841;-74
2022/10/06 04:05:39;;;;;;;25.30;23.43;;;12.50;99.90;;;;;;4988941;28;20454;-73
2022/10/06 04:08:05;;;;;;;25.17;23.07;;;12.60;99.90;;;;;;4994452;28;20465;-73
2022/10/06 04:10:33;;;;;;;26.30;24.17;;;12.60;99.90;;;;;;5012512;28;20959;-73
2022/10/06 04:13:00;;;;;;;24.53;22.80;;;12.70;99.90;;;;;;5012277;28;20445;-73
2022/10/06 04:15:28;;;;;;;25.77;23.50;;;12.70;99.90;;;;;;5012158;28;20560;-73
2022/10/06 04:17:55;;;;;;;23.80;22.10;;;12.80;99.90;;;;;;5012064;28;20464;-73
2022/10/06 04:20:21;;;;;;;25.20;23.50;;;13.00;99.90;;;;;;5012035;28;20940;-73
2022/10/06 04:22:48;;;;;;;26.57;23.90;;;12.80;99.90;;;;;;5012070;28;20448;-72
2022/10/06 04:25:15;;;;;;;23.50;21.70;;;12.80;99.90;;;;;;5012032;28;20442;-74
2022/10/06 04:27:41;;;;;;;24.67;22.67;;;12.90;99.90;;;;;;5011797;28;20457;-73
2022/10/06 04:30:09;;;;;;;25.03;22.57;;;13.00;99.90;;;;;;5011890;28;20457;-74
2022/10/06 04:32:37;;;;;;;25.77;23.07;;;12.90;99.90;;;;;;5011948;28;20462;-74
2022/10/06 04:35:04;;;;;;;24.90;23.00;;;13.00;99.90;;;;;;5012190;28;20465;-74
2022/10/06 04:37:31;;;;;;;24.40;22.57;;;13.00;99.90;;;;;;5011932;28;20454;-73
2022/10/06 04:39:58;;;;;;;23.80;22.00;;;12.90;99.90;;;;;;5011411;28;20946;-74
2022/10/06 04:42:24;;;;;;;24.97;22.93;;;13.00;99.90;;;;;;5011701;28;20775;-74
2022/10/06 04:44:51;;;;;;;23.73;22.00;;;13.00;99.90;;;;;;5011892;28;20898;-74
2022/10/06 04:47:18;;;;;;;23.90;22.27;;;12.90;99.90;;;;;;5012064;28;20446;-74
2022/10/06 04:49:46;;;;;;;25.60;23.20;;;12.90;99.90;;;;;;5012045;28;20461;-74
2022/10/06 04:52:13;;;;;;;24.67;23.13;;;12.90;99.90;;;;;;5011512;28;20966;-74
2022/10/06 04:54:40;;;;;;;24.40;22.13;;;12.80;99.90;;;;;;5011546;28;20668;-74
2022/10/06 04:57:06;;;;;;;24.47;22.87;;;12.90;99.90;;;;;;5011273;28;20506;-74
2022/10/06 05:02:18;;;;;;;23.80;22.03;;;13.00;99.90;;;;;;5011747;28;20433;-74
2022/10/06 05:04:46;;;;;;;22.23;20.83;;;13.00;99.90;;;;;;5011359;28;20497;-76
2022/10/06 05:07:13;;;;;;;21.10;19.70;;;13.10;99.90;;;;;;5011555;28;20454;-73
2022/10/06 05:09:40;;;;;;;20.10;18.70;;;13.20;99.90;;;;;;5011306;28;20712;-73
2022/10/06 05:12:08;;;;;;;22.33;20.80;;;13.20;99.90;;;;;;5011282;28;20453;-73
2022/10/06 05:14:35;;;;;;;22.53;21.13;;;13.20;99.90;;;;;;5011496;28;20524;-73
2022/10/06 05:17:02;;;;;;;23.17;21.27;;;13.30;99.90;;;;;;5011551;28;20458;-74
2022/10/06 05:19:29;;;;;;;22.50;20.80;;;13.40;99.90;;;;;;5011483;28;20931;-72
2022/10/06 05:21:57;;;;;;;20.80;19.50;;;13.40;99.90;;;;;;5011441;28;20454;-73
2022/10/06 05:24:23;;;;;;;22.50;20.93;;;13.40;99.90;;;;;;5011191;28;20486;-73
2022/10/06 05:26:50;;;;;;;22.90;21.10;;;13.40;99.90;;;;;;5011152;28;20450;-73
2022/10/06 05:29:17;;;;;;;23.53;21.50;;;13.50;99.90;;;;;;5011645;28;20446;-73
2022/10/06 05:31:44;;;;;;;23.93;22.43;;;13.60;99.90;;;;;;5011188;28;20453;-73
2022/10/06 05:34:10;;;;;;;24.40;22.50;;;13.60;99.90;;;;;;5011292;28;20524;-73
2022/10/06 05:36:37;;;;;;;24.63;22.60;;;13.60;99.90;;;;;;5013504;28;20458;-71
2022/10/06 05:39:20;;;;;;;24.33;22.50;;;13.60;99.90;;;;;;5015183;28;20457;-73
2022/10/06 05:41:47;;;;;;;23.57;22.00;;;13.60;99.90;;;;;;5013556;28;20867;-71
2022/10/06 05:44:13;;;;;;;25.00;22.57;;;13.70;99.90;;;;;;5010737;28;20488;-74
2022/10/06 05:46:40;;;;;;;22.80;21.03;;;13.60;99.90;;;;;;5008721;28;20468;-72
2022/10/06 05:49:09;;;;;;;25.37;23.20;;;13.60;99.90;;;;;;5008583;28;20462;-72
2022/10/06 05:51:37;;;;;;;23.47;21.80;;;13.70;99.90;;;;;;5010166;28;20465;-72
2022/10/06 05:54:06;;;;;;;24.53;22.33;;;13.70;99.90;;;;;;5010758;28;20546;-72
2022/10/06 05:56:34;;;;;;;23.60;21.77;;;13.60;99.90;;;;;;5007534;28;20887;-72
2022/10/06 05:59:01;;;;;;;23.33;21.60;;;13.60;99.90;;;;;;4984586;28;21019;-71
2022/10/06 06:01:30;;;;;;;23.00;21.60;;;13.60;99.90;;;;;;4978684;28;20458;-72
2022/10/06 06:03:59;;;;;;;23.30;21.60;;;13.60;99.90;;;;;;4991124;28;20489;-72
2022/10/06 06:06:27;;;;;;;23.93;22.27;;;13.60;99.90;;;;;;4990682;28;20501;-71
2022/10/06 06:08:56;;;;;;;23.70;22.00;;;13.50;99.90;;;;;;4991180;28;20912;-70
2022/10/06 06:11:26;;;;;;;22.40;20.70;;;13.60;99.90;;;;;;4990989;28;20458;-70
2022/10/06 06:13:55;;;;;;;24.10;22.20;;;13.60;99.90;;;;;;4990916;28;20485;-71
2022/10/06 06:16:21;;;;;;;24.20;22.53;;;13.70;99.90;;;;;;4991103;28;20458;-72
2022/10/06 06:18:47;;;;;;;25.57;23.47;;;13.80;99.90;;;;;;4991367;28;20531;-73
2022/10/06 06:21:15;;;;;;;23.47;21.87;;;13.80;99.90;;;;;;4991266;28;20226;-73
2022/10/06 06:23:45;;;;;;;23.17;21.43;;;13.80;99.90;;;;;;4991145;28;20486;-72
2022/10/06 06:26:13;;;;;;;23.63;21.83;;;13.80;99.90;;;;;;4991217;28;20467;-73
2022/10/06 06:28:42;;;;;;;24.53;22.37;;;13.90;99.90;;;;;;4990905;28;20454;-72
2022/10/06 06:31:11;;;;;;;23.87;21.63;;;13.90;99.90;;;;;;4990467;28;20503;-74
2022/10/06 06:33:39;;;;;;;27.00;24.50;;;13.90;99.90;;;;;;4990711;28;20458;-72
2022/10/06 06:36:12;;;;;;;24.20;21.93;;;13.90;99.90;;;;;;4990619;28;20491;-72
2022/10/06 06:38:39;;;;;;;25.10;22.60;;;13.80;99.90;;;;;;4990742;28;20450;-72
2022/10/06 06:41:13;;;;;;;24.13;22.20;;;13.90;99.90;;;;;;4988281;28;20967;-72
2022/10/06 06:43:42;;;;;;;23.63;21.93;;;14.00;99.90;;;;;;4985650;28;21063;-72
2022/10/06 06:46:09;;;;;;;23.50;21.70;;;14.00;99.90;;;;;;4988631;28;20458;-72
2022/10/06 06:48:36;;;;;;;25.37;23.20;;;14.00;99.90;;;;;;4990718;28;20520;-72
2022/10/06 06:51:04;;;;;;;23.90;21.80;;;13.90;99.90;;;;;;4990834;28;20455;-72
2022/10/06 06:53:31;;;;;;;22.27;20.67;;;14.00;99.90;;;;;;4990563;28;20462;-72
2022/10/06 06:55:58;;;;;;;22.30;20.03;;;14.10;99.90;;;;;;4990041;28;20470;-72
2022/10/06 06:58:25;;;;;;;22.77;21.07;;;14.10;99.90;;;;;;4989845;28;20490;-71
2022/10/06 07:00:53;;;;;;;24.07;21.90;;;14.20;99.90;;;;;;4984028;28;20469;-72
2022/10/06 07:03:21;;;;;;;23.77;21.60;;;14.20;99.90;;;;;;4988416;28;20458;-72
2022/10/06 07:05:48;;;;;;;23.10;21.00;;;14.30;99.90;;;;;;4989900;28;20952;-70
2022/10/06 07:08:18;;;;;;;21.93;20.33;;;14.40;99.90;;;;;;4989190;28;20451;-70
2022/10/06 07:10:47;;;;;;;22.73;20.93;;;14.50;99.90;;;;;;4989367;28;20940;-70
2022/10/06 07:13:16;;;;;;;21.73;20.13;;;14.60;99.90;;;;;;4989745;28;20462;-73
2022/10/06 07:26:47;;;;;;;22.17;20.20;;;15.40;99.90;;;;;;4989771;28;20818;-71
2022/10/06 07:29:14;;;;;;;20.33;18.20;;;15.50;99.90;;;;;;4989552;28;20466;-71
2022/10/06 07:31:41;;;;;;;21.93;19.50;;;15.40;99.90;;;;;;4989753;28;20739;-71
2022/10/06 07:34:09;;;;;;;22.70;20.90;;;15.30;99.90;;;;;;4989536;28;20538;-72
2022/10/06 07:36:36;;;;;;;20.97;19.23;;;15.40;99.90;;;;;;4989569;28;20833;-70
2022/10/06 07:39:03;;;;;;;21.20;19.23;;;15.40;99.90;;;;;;4989831;28;20458;-71
2022/10/06 07:41:30;;;;;;;19.17;17.67;;;15.60;99.90;;;;;;4989802;28;20452;-70
2022/10/06 07:43:58;;;;;;;20.13;18.43;;;15.70;99.90;;;;;;4991260;28;20770;-71
2022/10/06 07:46:24;;;;;;;20.53;17.90;;;15.90;99.90;;;;;;4994072;28;20831;-71
2022/10/06 07:48:51;;;;;;;20.10;18.30;;;16.00;99.90;;;;;;4993010;28;20493;-71
2022/10/06 07:51:20;;;;;;;19.00;17.80;;;16.10;99.90;;;;;;4993003;28;20447;-73
2022/10/06 07:53:49;;;;;;;18.03;16.50;;;16.10;99.90;;;;;;4993003;28;20455;-72
2022/10/06 07:56:19;;;;;;;17.03;15.97;;;16.50;99.90;;;;;;4992758;28;20816;-72
2022/10/06 07:58:46;;;;;;;18.87;17.67;;;16.50;99.90;;;;;;4992690;28;20496;-72
2022/10/06 08:01:14;;;;;;;19.40;18.03;;;16.50;99.90;;;;;;4992879;28;20477;-71
2022/10/06 08:03:43;;;;;;;19.97;18.07;;;16.60;99.90;;;;;;4992845;28;20800;-71
2022/10/06 08:06:13;;;;;;;20.17;18.47;;;16.60;99.90;;;;;;4992722;28;20525;-71
2022/10/06 08:08:41;;;;;;;19.90;18.30;;;16.70;99.90;;;;;;4992704;28;20521;-70
2022/10/06 08:11:08;;;;;;;19.17;17.57;;;17.30;99.90;;;;;;4992483;28;20466;-71
2022/10/06 08:13:36;;;;;;;20.57;18.43;;;17.70;99.90;;;;;;4992588;28;20458;-71
2022/10/06 08:16:09;;;;;;;20.20;17.80;;;18.30;99.90;;;;;;4992508;28;20471;-71
2022/10/06 08:18:36;;;;;;;22.20;20.50;;;19.20;99.90;;;;;;4989310;28;20446;-70
2022/10/06 08:21:09;;;;;;;20.70;19.10;;;19.80;99.90;;;;;;4993067;28;20472;-71
2022/10/06 08:23:38;;;;;;;23.73;21.47;;;20.20;99.90;;;;;;4992618;28;20474;-71
2022/10/06 08:26:06;;;;;;;22.67;20.77;;;20.40;99.90;;;;;;4992510;28;20494;-70
2022/10/06 08:28:34;;;;;;;19.23;17.80;;;20.30;99.90;;;;;;4993034;28;20457;-71
2022/10/06 08:31:04;;;;;;;21.00;18.77;;;19.80;99.90;;;;;;4992895;28;20450;-71
2022/10/06 08:33:31;;;;;;;21.33;19.40;;;19.50;99.90;;;;;;4991746;28;20968;-71
2022/10/06 08:36:02;;;;;;;18.67;17.27;;;19.50;99.90;;;;;;4995158;28;20447;-71
2022/10/06 08:38:29;;;;;;;20.63;18.27;;;19.50;99.90;;;;;;4995384;28;20451;-71
2022/10/06 08:40:55;;;;;;;18.93;17.73;;;19.40;99.90;;;;;;4994506;28;20454;-72
2022/10/06 08:43:25;;;;;;;18.83;17.53;;;19.40;99.90;;;;;;4993738;28;20459;-72
2022/10/06 08:45:59;;;;;;;18.50;17.00;;;19.30;99.90;;;;;;4993216;28;20489;-72
2022/10/06 08:48:27;;;;;;;17.50;16.00;;;20.00;99.90;;;;;;4993362;28;20466;-72
2022/10/06 08:51:09;;;;;;;17.27;16.23;;;20.40;99.90;;;;;;4992101;28;20549;-72
2022/10/06 08:53:45;;;;;;;18.83;17.27;;;20.70;99.90;;;;;;4992484;28;20450;-71
2022/10/06 08:56:18;;;;;;;16.97;15.27;;;21.10;99.90;;;;;;4992469;28;20485;-71
2022/10/06 08:58:52;;;;;;;17.10;15.70;;;21.30;99.90;;;;;;4992015;28;20494;-71
2022/10/06 09:01:23;;;;;;;16.87;15.60;;;21.40;99.90;;;;;;4992411;28;20945;-71
2022/10/06 09:03:52;;;;;;;13.60;12.80;;;21.60;99.90;;;;;;4992786;28;20805;-72
2022/10/06 09:06:34;;;;;;;12.83;12.10;;;21.10;99.90;;;;;;4992038;28;20948;-72
2022/10/06 09:09:06;;;;;;;13.40;12.50;;;20.80;99.90;;;;;;4988833;28;20466;-72
2022/10/06 09:11:46;;;;;;;12.80;12.10;;;20.70;99.90;;;;;;4992150;28;21184;-71
2022/10/06 09:14:19;;;;;;;12.00;11.30;;;20.60;99.90;;;;;;4991727;28;20465;-71
2022/10/06 09:16:52;;;;;;;12.30;11.53;;;20.70;99.90;;;;;;4989711;28;20462;-71
2022/10/06 09:19:24;;;;;;;11.57;10.70;;;20.70;99.90;;;;;;4991447;28;20462;-72
2022/10/06 09:21:52;;;;;;;11.47;10.83;;;20.70;99.90;;;;;;4991141;28;20546;-71
2022/10/06 09:24:25;;;;;;;11.70;11.00;;;20.40;99.90;;;;;;4991222;28;20443;-71
2022/10/06 09:26:53;;;;;;;12.27;11.67;;;20.30;99.90;;;;;;4991146;28;20451;-71
2022/10/06 09:29:22;;;;;;;11.90;10.87;;;20.50;99.90;;;;;;4991330;28;20786;-70
2022/10/06 09:31:49;;;;;;;12.23;11.70;;;20.60;99.90;;;;;;4991431;28;20455;-72
2022/10/06 09:34:23;;;;;;;12.20;11.40;;;20.80;99.90;;;;;;4991058;28;20461;-70
2022/10/06 09:37:01;;;;;;;11.53;11.00;;;21.10;99.90;;;;;;4991429;28;20446;-70
2022/10/06 09:39:34;;;;;;;13.13;12.10;;;21.50;99.90;;;;;;4991024;28;20876;-71
2022/10/06 09:42:03;;;;;;;12.97;12.13;;;21.90;99.50;;;;;;4990908;28;20953;-70
2022/10/06 09:44:41;;;;;;;12.40;11.77;;;22.60;99.90;;;;;;4990922;28;20490;-70
2022/10/06 09:47:30;;;;;;;12.30;11.70;;;22.80;97.60;;;;;;4990693;28;20454;-70
2022/10/06 09:50:03;;;;;;;12.77;12.10;;;22.50;97.10;;;;;;4991178;28;20566;-71
2022/10/06 09:52:30;;;;;;;12.33;11.70;;;22.90;98.10;;;;;;4990977;28;20451;-70
2022/10/06 09:55:05;;;;;;;12.50;11.80;;;23.90;95.60;;;;;;4990544;28;20439;-71
2022/10/06 09:57:33;;;;;;;12.57;11.87;;;24.40;94.00;;;;;;4990464;28;20490;-71
2022/10/06 10:00:02;;;;;;;12.23;11.60;;;23.90;93.80;;;;;;4988929;28;20462;-70
2022/10/06 10:02:35;;;;;;;13.00;12.10;;;23.90;94.10;;;;;;4990734;28;20455;-71
2022/10/06 10:05:05;;;;;;;12.53;11.90;;;23.70;94.40;;;;;;4990713;28;20492;-71
2022/10/06 10:07:35;;;;;;;12.20;11.40;;;23.60;93.90;;;;;;4990528;28;20443;-71
2022/10/06 10:10:20;;;;;;;12.53;11.93;;;23.50;94.60;;;;;;4990795;28;20451;-70
2022/10/06 10:12:50;;;;;;;12.70;11.90;;;23.50;93.80;;;;;;4990602;28;20458;-71
2022/10/06 10:15:30;;;;;;;13.00;12.30;;;23.80;94.40;;;;;;4990698;28;20454;-70
2022/10/06 10:17:58;;;;;;;12.63;11.93;;;23.90;94.30;;;;;;4990241;28;20485;-71
2022/10/06 10:20:32;;;;;;;11.70;11.20;;;23.30;95.20;;;;;;4990238;28;20454;-71
2022/10/06 10:23:01;;;;;;;13.13;12.30;;;23.20;94.70;;;;;;4990317;28;20553;-72
2022/10/06 10:25:54;;;;;;;14.63;12.80;;;23.20;95.20;;;;;;4989999;28;20486;-71
2022/10/06 10:28:38;;;;;;;12.33;11.70;;;22.60;96.00;;;;;;4989929;28;20454;-70
2022/10/06 10:31:14;;;;;;;12.70;12.00;;;22.50;96.70;;;;;;4990186;28;20479;-70
2022/10/06 10:33:45;;;;;;;13.30;12.23;;;22.50;97.40;;;;;;4990034;28;20712;-70
2022/10/06 10:36:16;;;;;;;13.60;12.83;;;22.50;96.90;;;;;;4984646;28;20466;-70
2022/10/06 10:38:46;;;;;;;11.07;10.43;;;22.60;97.10;;;;;;4986548;28;20470;-70
2022/10/06 10:41:17;;;;;;;13.03;12.23;;;22.40;97.60;;;;;;4989853;28;20940;-70
2022/10/06 10:43:52;;;;;;;12.80;12.10;;;23.30;95.80;;;;;;4989726;28;20509;-70
2022/10/06 10:46:28;;;;;;;12.53;11.80;;;24.20;93.30;;;;;;4990196;28;20493;-71
2022/10/06 10:49:01;;;;;;;12.67;12.17;;;25.20;92.60;;;;;;4990525;28;20450;-71
2022/10/06 10:51:31;;;;;;;12.73;11.90;;;26.30;88.60;;;;;;4990257;28;20461;-71
2022/10/06 10:54:03;;;;;;;12.43;11.83;;;26.50;85.00;;;;;;4990110;28;20450;-72
2022/10/06 10:56:32;;;;;;;12.77;11.80;;;25.80;85.30;;;;;;4990056;28;20801;-72
2022/10/06 10:59:06;;;;;;;13.60;12.70;;;25.20;85.10;;;;;;4990070;28;20489;-72
2022/10/06 11:01:39;;;;;;;12.43;11.83;;;25.30;85.00;;;;;;4990401;28;20513;-73
2022/10/06 11:04:11;;;;;;;12.70;12.00;;;24.60;87.70;;;;;;4990259;28;20474;-72
2022/10/06 11:07:07;;;;;;;12.77;11.97;;;24.20;89.10;;;;;;4987890;28;20486;-71
2022/10/06 11:09:42;;;;;;;12.77;11.97;;;24.00;90.50;;;;;;4986572;28;20463;-71
2022/10/06 11:12:18;;;;;;;11.13;10.40;;;24.50;89.70;;;;;;4989889;28;20451;-72
2022/10/06 11:14:55;;;;;;;12.10;11.60;;;24.70;88.80;;;;;;4990023;28;20458;-73
2022/10/06 11:17:43;;;;;;;11.83;11.27;;;25.60;88.00;;;;;;4990706;28;20477;-73
2022/10/06 11:20:36;;;;;;;12.47;11.87;;;26.80;82.90;;;;;;4993868;28;20797;-74
2022/10/06 11:23:24;;;;;;;13.43;12.80;;;26.90;82.10;;;;;;4993895;28;20458;-73
2022/10/06 11:26:02;;;;;;;12.10;11.40;;;26.00;84.40;;;;;;4993624;28;20490;-72
2022/10/06 11:28:38;;;;;;;11.37;10.77;;;25.30;85.50;;;;;;4994352;28;20461;-72
2022/10/06 11:31:15;;;;;;;11.63;11.13;;;25.30;86.00;;;;;;4994400;28;20783;-71
2022/10/06 11:33:48;;;;;;;11.50;11.00;;;25.60;85.00;;;;;;4991574;28;20513;-71
2022/10/06 11:36:22;;;;;;;13.80;12.43;;;25.50;85.50;;;;;;4993056;28;20811;-70
2022/10/06 11:38:56;;;;;;;12.70;11.80;;;25.50;86.40;;;;;;4996884;28;20454;-70
2022/10/06 11:41:27;;;;;;;11.93;11.17;;;25.20;87.00;;;;;;4996242;28;20505;-71
2022/10/06 11:44:02;;;;;;;12.90;12.00;;;24.60;88.20;;;;;;4994534;28;20824;-73
2022/10/06 11:46:35;;;;;;;12.10;11.50;;;23.20;91.60;;;;;;4993256;28;20489;-73
2022/10/06 11:49:47;;;;;;;10.57;10.13;;;22.80;92.50;;;;;;4993313;28;20462;-73
2022/10/06 11:52:43;;;;;;;12.10;11.30;;;22.80;92.90;;;;;;4993269;28;20469;-72
2022/10/06 11:55:18;;;;;;;13.17;12.10;;;23.10;92.70;;;;;;4992977;28;20461;-72
2022/10/06 11:58:07;;;;;;;11.10;10.40;;;23.50;92.50;;;;;;4992672;28;20482;-72
2022/10/06 12:00:49;;;;;;;11.60;10.90;;;23.40;91.80;;;;;;4993509;28;20458;-73
2022/10/06 12:03:45;;;;;;;12.37;11.40;;;23.90;91.40;;;;;;4993545;28;20443;-73
2022/10/06 12:06:45;;;;;;;12.13;11.53;;;23.60;91.30;;;;;;4992999;28;20498;-73
2022/10/06 12:09:41;;;;;;;11.63;10.93;;;22.90;91.60;;;;;;4993012;28;20472;-73
2022/10/06 12:12:53;;;;;;;11.43;10.93;;;22.90;92.10;;;;;;4993119;28;20819;-73
2022/10/06 12:16:01;;;;;;;11.67;11.00;;;22.50;92.70;;;;;;4993208;28;20454;-72
2022/10/06 12:18:42;;;;;;;11.90;11.40;;;22.40;93.30;;;;;;4992908;28;20520;-72
2022/10/06 12:21:23;;;;;;;12.67;11.90;;;22.60;92.60;;;;;;4992552;28;20871;-72
2022/10/06 12:24:03;;;;;;;9.87;9.30;;;22.50;92.70;;;;;;4992827;28;20944;-72
2022/10/06 12:26:54;;;;;;;11.07;10.47;;;22.90;92.60;;;;;;4992464;28;20486;-72
2022/10/06 12:29:42;;;;;;;11.60;10.90;;;23.30;92.00;;;;;;4991977;28;20463;-73
2022/10/06 12:32:19;;;;;;;11.17;10.50;;;23.20;91.70;;;;;;4989071;28;20462;-72
2022/10/06 12:34:56;;;;;;;11.93;11.23;;;23.10;91.90;;;;;;4992513;28;20458;-72
2022/10/06 12:37:40;;;;;;;13.00;12.30;;;22.90;92.20;;;;;;4992579;28;20473;-71
2022/10/06 12:40:42;;;;;;;11.80;11.30;;;22.80;92.80;;;;;;4992611;28;20473;-74
2022/10/06 12:43:51;;;;;;;10.70;10.00;;;22.30;93.50;;;;;;4973118;28;20992;-71
2022/10/06 12:46:25;;;;;;;11.40;10.80;;;22.20;93.80;;;;;;4960080;28;20483;-72
2022/10/06 12:49:34;;;;;;;10.83;10.33;;;22.40;93.70;;;;;;4972945;28;20453;-72
2022/10/06 12:52:07;;;;;;;13.20;12.40;;;22.40;93.50;;;;;;4894137;29;20509;-72
2022/10/06 12:54:42;;;;;;;11.53;10.70;;;22.30;93.50;;;;;;4891777;29;20474;-72
2022/10/06 12:57:17;;;;;;;17.33;12.30;;;22.20;94.00;;;;;;4940283;28;20485;-72
2022/10/06 12:59:46;;;;;;;11.93;10.93;;;22.30;94.10;;;;;;4972447;28;20451;-72
2022/10/06 13:02:18;;;;;;;10.73;9.67;;;22.00;94.10;;;;;;4972332;28;20594;-73
2022/10/06 13:04:53;;;;;;;11.70;11.00;;;21.70;94.90;;;;;;4972513;28;20459;-73
2022/10/06 13:07:21;;;;;;;12.23;11.43;;;21.80;95.30;;;;;;4972377;28;20494;-71
2022/10/06 13:09:52;;;;;;;11.63;11.03;;;21.90;94.80;;;;;;4972291;28;20543;-72
2022/10/06 13:12:27;;;;;;;11.80;11.10;;;22.00;94.60;;;;;;4970958;28;20459;-72
2022/10/06 13:15:15;;;;;;;11.70;11.10;;;22.30;94.60;;;;;;4971949;28;20454;-72
2022/10/06 13:17:44;;;;;;;12.20;11.43;;;22.40;94.30;;;;;;4972111;28;20985;-73
2022/10/06 13:20:21;;;;;;;10.47;9.70;;;22.50;94.60;;;;;;4972342;28;20507;-72
2022/10/06 13:22:55;;;;;;;11.03;10.13;;;22.40;93.90;;;;;;4972285;28;20969;-72
2022/10/06 13:25:22;;;;;;;12.40;11.50;;;22.30;93.90;;;;;;4971860;28;20491;-71
2022/10/06 13:27:50;;;;;;;12.70;12.20;;;22.10;94.60;;;;;;4972028;28;20461;-72
2022/10/06 13:30:21;;;;;;;12.97;12.17;;;22.00;94.70;;;;;;4971980;28;20783;-71
2022/10/06 13:32:52;;;;;;;11.57;10.97;;;21.90;94.80;;;;;;4972188;28;20459;-72
2022/10/06 13:35:23;;;;;;;13.60;12.90;;;22.30;94.50;;;;;;4972179;28;20462;-73
2022/10/06 13:37:51;;;;;;;11.73;11.20;;;22.40;93.60;;;;;;4972104;28;20452;-73
2022/10/06 13:40:30;;;;;;;12.60;11.70;;;22.50;93.80;;;;;;4982191;28;20466;-73
2022/10/06 13:42:58;;;;;;;11.47;10.87;;;22.20;93.70;;;;;;4971126;28;20558;-73
2022/10/06 13:45:27;;;;;;;11.13;10.40;;;22.10;94.20;;;;;;4970031;28;20464;-72
2022/10/06 13:48:06;;;;;;;11.50;10.73;;;22.30;93.90;;;;;;4971686;28;20451;-72
2022/10/06 13:50:33;;;;;;;11.13;10.47;;;22.10;93.80;;;;;;4971953;28;20451;-72
2022/10/06 13:53:00;;;;;;;12.93;12.13;;;21.70;94.00;;;;;;4971807;28;20455;-72
2022/10/06 13:55:30;;;;;;;11.63;10.83;;;21.40;95.30;;;;;;4971369;28;20491;-72
2022/10/06 13:58:08;;;;;;;12.27;11.53;;;21.50;95.20;;;;;;4971253;28;20491;-72
2022/10/06 14:00:49;;;;;;;11.20;10.53;;;21.50;95.40;;;;;;4969906;28;20490;-72
2022/10/06 14:03:23;;;;;;;12.93;11.40;;;21.60;95.50;;;;;;4971146;28;20462;-71
2022/10/06 14:05:50;;;;;;;12.63;11.50;;;21.50;95.30;;;;;;4971509;28;20495;-72
2022/10/06 14:08:23;;;;;;;11.50;11.00;;;21.80;95.40;;;;;;4971616;28;20806;-72
2022/10/06 14:10:52;;;;;;;11.30;10.67;;;21.90;94.50;;;;;;4971257;28;20555;-72
2022/10/06 14:13:21;;;;;;;12.80;11.77;;;22.00;94.50;;;;;;4973907;28;20531;-73
2022/10/06 14:15:52;;;;;;;12.13;11.20;;;21.90;94.70;;;;;;4980339;28;20960;-73
2022/10/06 14:18:23;;;;;;;11.60;10.60;;;21.70;94.50;;;;;;4980010;28;20502;-72
2022/10/06 14:20:52;;;;;;;12.00;11.30;;;21.30;95.30;;;;;;4980105;28;20455;-73
2022/10/06 14:23:41;;;;;;;10.57;9.83;;;21.00;95.80;;;;;;4980019;28;20840;-73
2022/10/06 14:26:09;;;;;;;11.17;10.67;;;20.80;96.00;;;;;;4979338;28;20484;-73
2022/10/06 14:28:36;;;;;;;11.57;10.87;;;20.70;96.40;;;;;;4980046;28;20474;-72
2022/10/06 14:31:04;;;;;;;11.93;11.00;;;20.40;97.00;;;;;;4981589;28;20448;-73
2022/10/06 14:33:31;;;;;;;10.93;10.40;;;20.20;97.60;;;;;;4980151;28;20451;-72
2022/10/06 14:35:58;;;;;;;11.37;10.33;;;20.20;98.00;;;;;;4979377;28;20450;-72
2022/10/06 14:38:25;;;;;;;11.50;10.60;;;20.30;98.20;;;;;;4980999;28;20960;-72
2022/10/06 14:40:52;;;;;;;13.17;12.20;;;20.30;97.90;;;;;;4979844;28;20457;-72
2022/10/06 14:43:19;;;;;;;12.10;11.30;;;20.20;97.90;;;;;;4979596;28;20470;-73
2022/10/06 14:45:45;;;;;;;10.70;9.97;;;20.20;98.20;;;;;;4980901;28;20509;-72
2022/10/06 14:48:15;;;;;;;12.00;11.30;;;20.30;98.60;;;;;;4982490;28;20443;-72
2022/10/06 14:50:43;;;;;;;11.60;11.00;;;20.20;98.30;;;;;;4981086;28;20533;-72
2022/10/06 14:53:13;;;;;;;10.60;10.20;;;20.20;98.90;;;;;;4979004;28;20464;-73
2022/10/06 14:55:39;;;;;;;12.27;11.40;;;20.20;98.80;;;;;;4979142;28;20443;-72
2022/10/06 14:58:06;;;;;;;11.90;10.90;;;20.10;98.70;;;;;;4980691;28;20510;-72
2022/10/06 15:00:33;;;;;;;11.53;10.93;;;20.00;99.30;;;;;;4982838;28;20967;-73
2022/10/06 15:03:01;;;;;;;11.90;10.90;;;20.00;99.60;;;;;;4990249;28;20447;-73
2022/10/06 15:05:30;;;;;;;11.70;10.70;;;20.00;99.70;;;;;;4990098;28;20462;-74
2022/10/06 15:08:10;;;;;;;11.80;10.90;;;20.00;99.90;;;;;;4990045;28;20501;-73
2022/10/06 15:10:38;;;;;;;12.63;11.50;;;20.10;99.90;;;;;;4990026;28;20474;-72
2022/10/06 15:13:08;;;;;;;12.60;11.70;;;20.10;99.90;;;;;;4989819;28;20454;-73
2022/10/06 15:15:36;;;;;;;12.63;11.80;;;20.10;99.90;;;;;;4990093;28;20513;-73
2022/10/06 15:18:04;;;;;;;12.40;11.63;;;20.20;99.90;;;;;;4988006;28;20541;-72
2022/10/06 15:20:32;;;;;;;12.50;11.70;;;20.50;99.90;;;;;;4989559;28;20454;-73
2022/10/06 15:22:58;;;;;;;12.00;11.30;;;20.60;99.40;;;;;;4989481;28;20461;-72
2022/10/06 15:30:57;;;;;;;11.50;10.80;;;20.20;99.90;;;;;;4989950;28;20685;-73
2022/10/06 15:33:24;;;;;;;11.47;10.87;;;20.20;99.90;;;;;;4987837;28;20458;-72
2022/10/06 15:36:15;;;;;;;11.97;11.27;;;20.10;99.90;;;;;;4989711;28;20833;-72
2022/10/06 15:38:42;;;;;;;12.10;11.20;;;20.10;99.90;;;;;;4989682;28;20451;-71
2022/10/06 15:41:10;;;;;;;11.80;11.10;;;20.00;99.90;;;;;;4989730;28;20451;-72
2022/10/06 15:43:56;;;;;;;11.43;10.80;;;19.90;99.90;;;;;;4989797;28;20512;-71
2022/10/06 15:46:25;;;;;;;13.00;12.10;;;19.80;99.90;;;;;;4989220;28;20486;-73
2022/10/06 15:48:53;;;;;;;11.60;11.00;;;19.70;99.90;;;;;;4989062;28;20462;-71
2022/10/06 15:51:22;;;;;;;12.10;11.27;;;19.70;99.90;;;;;;4989661;28;20482;-72
2022/10/06 15:53:49;;;;;;;12.33;11.67;;;19.70;99.90;;;;;;4989659;28;20810;-72
2022/10/06 15:56:17;;;;;;;11.23;10.53;;;19.60;99.90;;;;;;4989401;28;20809;-72
2022/10/06 15:58:44;;;;;;;11.90;11.20;;;19.50;99.90;;;;;;4989146;28;20569;-71
2022/10/06 16:01:32;;;;;;;10.57;10.00;;;19.20;99.90;;;;;;4989168;28;20486;-72
2022/10/06 16:04:03;;;;;;;11.00;10.37;;;19.10;99.90;;;;;;4989470;28;20761;-71
2022/10/06 16:06:42;;;;;;;12.70;11.90;;;19.10;99.90;;;;;;4992933;28;20878;-71
2022/10/06 16:09:10;;;;;;;12.27;11.40;;;18.90;99.90;;;;;;4993173;28;20458;-72
2022/10/06 16:11:37;;;;;;;12.07;11.37;;;18.90;99.90;;;;;;4993033;28;20442;-73
2022/10/06 16:14:04;;;;;;;11.97;11.30;;;18.80;99.90;;;;;;4993360;28;20447;-73
2022/10/06 16:16:31;;;;;;;10.73;10.23;;;18.70;99.90;;;;;;4992940;28;20473;-73
2022/10/06 16:18:57;;;;;;;12.80;11.83;;;18.60;99.90;;;;;;4992485;28;20447;-70
2022/10/06 16:21:24;;;;;;;11.80;11.20;;;18.60;99.90;;;;;;4992571;28;21019;-72
2022/10/06 16:23:53;;;;;;;12.00;11.20;;;18.50;99.90;;;;;;4993003;28;20446;-71
2022/10/06 16:26:19;;;;;;;12.87;11.70;;;18.40;99.90;;;;;;4992909;28;20450;-71
2022/10/06 16:28:46;;;;;;;11.50;10.93;;;18.40;99.90;;;;;;4992661;28;20967;-71
2022/10/06 16:31:13;;;;;;;11.53;11.03;;;18.30;99.90;;;;;;4992164;28;20447;-71
2022/10/06 16:33:40;;;;;;;12.10;11.30;;;18.20;99.90;;;;;;4992389;28;20461;-71
2022/10/06 16:36:07;;;;;;;12.97;12.00;;;18.10;99.90;;;;;;4992461;28;20455;-72
2022/10/06 16:38:34;;;;;;;12.70;11.70;;;17.90;99.90;;;;;;4992437;28;20474;-72
2022/10/06 16:41:02;;;;;;;12.47;11.67;;;17.80;99.90;;;;;;4992487;28;20804;-72
2022/10/06 16:43:31;;;;;;;12.47;11.67;;;17.80;99.90;;;;;;4992396;28;20451;-72
2022/10/06 16:46:00;;;;;;;13.10;12.30;;;17.70;99.90;;;;;;4992366;28;20459;-72
2022/10/06 16:48:28;;;;;;;13.23;12.30;;;17.50;99.90;;;;;;4992407;28;20486;-72
2022/10/06 16:51:06;;;;;;;13.30;12.33;;;17.40;99.90;;;;;;4992272;28;20443;-72
2022/10/06 16:53:37;;;;;;;13.37;12.57;;;17.30;99.90;;;;;;4992420;28;20450;-72
2022/10/06 16:56:08;;;;;;;13.50;12.80;;;17.30;99.90;;;;;;4992405;28;20474;-72
2022/10/06 16:58:36;;;;;;;16.03;13.23;;;17.30;99.90;;;;;;4987964;28;20485;-71
2022/10/06 17:01:03;;;;;;;14.33;13.20;;;17.30;99.90;;;;;;4991925;28;20891;-72
2022/10/06 17:03:30;;;;;;;13.50;12.60;;;17.40;99.90;;;;;;4991962;28;20447;-73
2022/10/06 17:06:02;;;;;;;13.23;12.40;;;17.30;99.90;;;;;;4991794;28;20883;-72
2022/10/06 17:08:29;;;;;;;13.57;12.77;;;17.30;99.90;;;;;;4991774;28;20490;-73